Montgomery, Pennsylvania
Current Conditions -  °F | °C
As of 4:54 AM on Thursday 27 Nov 2014 (Local Time) from KIPT Reporting Station
Overcast Overcast  
Wind Chill: 26°   Ceiling: 2900
Heat Index: 32°   Visibility: 10mi
Dew Point: 28°   Wind: 7mph
Humidity: 85%   Direction: 260°W
Pressure: 30"   Gusts: NA
Location:  41.17°N, 76.88°W
Report Text: KIPT 270954Z AUTO 26006KT 10SM BKN029 BKN042 OVC050 00/M02 A3000 RMK AO2 UPB01E06SNB06E28 SLP163 P0000 T00001022
Loading
Personal Weather Stations






























Interactive Weather Map New forecast layout! Learn more

10-Day Weather Forecast

Advertisements
Track Severe Weather on mobile